CMA CGM Volga — 5BJR2 — position and weather

sailwx.info

Track history (hours):
 
Tides and Currents Weather Stations Pressure Air Temp Water Temp Dewpoint Dewpoint Depression Visibility Wind Speed Wind Dir Waves Ship Positions

CMA CGM Volga

Last reported at 2014-Nov-20 12:18 UTC. Time now 2014-Nov-21 16:44 UTC.
Position N 55°01' E 019°14'.

Length 184 m; draft 8.2 m.

Type: Ship (hazmat cat A). MMSI: 212456000.

Date/timePositionNaut miles runAvg speedWind from/ knotsBaromVisibWave heightAir tempDewpointWater temp
2014-Nov-20 12:18N 55°01' E 019°14'1013.8
2014-Nov-20 11:34N 54°51' E 019°18'1413.6
2014-Nov-20 10:34N 54°44' E 019°38'12 0.5
2014-Nov-19 12:13N 54°38' E 019°55'5 8.0
2014-Nov-19 11:33N 54°41' E 019°47'3 2.6
2014-Nov-19 10:33N 54°40' E 019°42'0 0.4
2014-Nov-19 09:33N 54°40' E 019°42'2 0.9
2014-Nov-19 07:31N 54°42' E 019°42'1111.6
2014-Nov-19 06:33N 54°45' E 019°23'3 3.4
2014-Nov-19 05:33N 54°45' E 019°17'1 0.9
2014-Nov-19 04:33N 54°45' E 019°19'1 0.9
2014-Nov-19 03:33N 54°44' E 019°20'1 0.8
2014-Nov-19 02:33N 54°44' E 019°21'1 1.2
2014-Nov-19 01:33N 54°44' E 019°23'1 1.1
2014-Nov-19 00:33N 54°44' E 019°25'1 0.9
2014-Nov-18 23:33N 54°44' E 019°27'3 2.6
2014-Nov-18 22:33N 54°44' E 019°22'1110.5
2014-Nov-18 21:34N 54°38' E 019°06'1313.0
2014-Nov-18 20:33N 54°26' E 018°59'9 9.3
2014-Nov-18 19:33N 54°24' E 018°43'1 0.5
2014-Nov-18 18:31N 54°23' E 018°43'0 0.0
2014-Nov-18 17:31N 54°23' E 018°43'0 0.0
2014-Nov-18 16:31N 54°23' E 018°43'0 0.0
2014-Nov-18 15:31N 54°23' E 018°43'0 0.0
2014-Nov-18 14:33N 54°23' E 018°43'0 0.0
2014-Nov-18 13:33N 54°23' E 018°43'0 0.0
2014-Nov-18 12:33N 54°23' E 018°43'0 0.0
2014-Nov-18 11:33N 54°23' E 018°43'0 0.0
2014-Nov-18 10:32N 54°23' E 018°43'0 0.0
2014-Nov-18 09:32N 54°23' E 018°43'0 0.0
2014-Nov-18 08:29N 54°23' E 018°43'0 0.0
2014-Nov-18 07:32N 54°23' E 018°43'0 0.0
2014-Nov-18 06:32N 54°23' E 018°43'0 0.0
2014-Nov-18 05:32N 54°23' E 018°43'0 0.0
2014-Nov-18 04:32N 54°23' E 018°43'0 0.0
2014-Nov-18 03:32N 54°23' E 018°43'0 0.0
2014-Nov-18 02:32N 54°23' E 018°43'0 0.0
2014-Nov-18 01:32N 54°23' E 018°43'0 0.0
2014-Nov-18 00:32N 54°23' E 018°43'0 0.0
2014-Nov-17 23:32N 54°23' E 018°43'0 0.0
2014-Nov-17 22:32N 54°23' E 018°43'0 0.0
2014-Nov-17 21:32N 54°23' E 018°43'0 0.0
2014-Nov-17 20:32N 54°23' E 018°43'0 0.0
2014-Nov-17 19:32N 54°23' E 018°43'0 0.0
2014-Nov-17 18:32N 54°23' E 018°43'0 0.0
2014-Nov-17 17:32N 54°23' E 018°43'0 0.0
2014-Nov-17 16:32N 54°23' E 018°43'0 0.0
2014-Nov-17 15:32N 54°23' E 018°43'0 0.0
2014-Nov-17 14:32N 54°23' E 018°43'0 0.0
2014-Nov-17 13:32N 54°23' E 018°43'0 0.0
2014-Nov-17 12:32N 54°23' E 018°43'0 0.0
2014-Nov-17 11:32N 54°23' E 018°43'0 0.0
2014-Nov-17 10:32N 54°23' E 018°43'0 0.0
2014-Nov-17 09:32N 54°23' E 018°43'0 0.0
2014-Nov-17 08:32N 54°23' E 018°43'0 0.0
2014-Nov-17 07:29N 54°23' E 018°43'0 0.0
2014-Nov-17 06:32N 54°23' E 018°43'0 0.0
2014-Nov-17 05:29N 54°23' E 018°43'1 0.7
2014-Nov-17 04:33N 54°24' E 018°43'6 5.8
2014-Nov-17 03:33N 54°27' E 018°52'1 0.8
2014-Nov-17 02:33N 54°27' E 018°53'6 6.5
2014-Nov-17 01:33N 54°32' E 019°00'9 8.7
2014-Nov-17 00:34N 54°40' E 019°03'1212.0
2014-Nov-16 23:33N 54°52' E 019°02'1211.8
2014-Nov-16 22:33N 55°04' E 019°01'  
2014-Nov-13 17:20N 59°40' E 023°35'2613.8
2014-Nov-13 15:26N 59°46' E 024°26'1213.3
2014-Nov-13 14:34N 59°39' E 024°45'9 0.4
2014-Nov-12 16:04N 59°32' E 024°57'712.6
2014-Nov-12 15:33N 59°37' E 024°49'1212.5
2014-Nov-12 14:33N 59°43' E 024°27'2612.9
2014-Nov-12 12:33N 59°35' E 023°39'260 9.0
2014-Nov-11 07:29N 55°47' E 019°45'44 9.9
2014-Nov-11 03:04N 55°05' E 019°22'713.7
2014-Nov-11 02:33N 54°58' E 019°18'1414.1
2014-Nov-11 01:33N 54°45' E 019°11'1413.5
2014-Nov-11 00:33N 54°32' E 019°03'1211.9
2014-Nov-10 23:33N 54°25' E 018°47'3 2.7
2014-Nov-10 22:32N 54°23' E 018°43'0 0.0
2014-Nov-10 21:32N 54°23' E 018°43'0 0.0
2014-Nov-10 20:32N 54°23' E 018°43'0 0.0
2014-Nov-10 19:32N 54°23' E 018°43'0 0.0
2014-Nov-10 18:32N 54°23' E 018°43'0 0.0
2014-Nov-10 17:32N 54°23' E 018°43'0 0.0
2014-Nov-10 16:33N 54°23' E 018°43'0 0.0
2014-Nov-10 15:31N 54°23' E 018°43'0 0.0
2014-Nov-10 14:33N 54°23' E 018°43'0 0.0
2014-Nov-10 13:33N 54°23' E 018°43'0 0.0
2014-Nov-10 12:31N 54°23' E 018°43'  
Track history (hours):
 
Tides and Currents Weather Stations Pressure Air Temp Water Temp Dewpoint Dewpoint Depression Visibility Wind Speed Wind Dir Waves Ship Positions

CMA CGM Volga

Last reported at 2014-Nov-20 12:18 UTC. Time now 2014-Nov-21 16:44 UTC.
Position N 55°01' E 019°14'.

Length 184 m; draft 8.2 m.

Type: Ship (hazmat cat A). MMSI: 212456000.

Date/timePositionNaut miles runAvg speedWind from/ knotsBaromVisibWave heightAir tempDewpointWater temp
2014-Nov-20 12:18N 55°01' E 019°14'1013.8
2014-Nov-20 11:34N 54°51' E 019°18'1413.6
2014-Nov-20 10:34N 54°44' E 019°38'12 0.5
2014-Nov-19 12:13N 54°38' E 019°55'5 8.0
2014-Nov-19 11:33N 54°41' E 019°47'3 2.6
2014-Nov-19 10:33N 54°40' E 019°42'0 0.4
2014-Nov-19 09:33N 54°40' E 019°42'2 0.9
2014-Nov-19 07:31N 54°42' E 019°42'1111.6
2014-Nov-19 06:33N 54°45' E 019°23'3 3.4
2014-Nov-19 05:33N 54°45' E 019°17'1 0.9
2014-Nov-19 04:33N 54°45' E 019°19'1 0.9
2014-Nov-19 03:33N 54°44' E 019°20'1 0.8
2014-Nov-19 02:33N 54°44' E 019°21'1 1.2
2014-Nov-19 01:33N 54°44' E 019°23'1 1.1
2014-Nov-19 00:33N 54°44' E 019°25'1 0.9
2014-Nov-18 23:33N 54°44' E 019°27'3 2.6
2014-Nov-18 22:33N 54°44' E 019°22'1110.5
2014-Nov-18 21:34N 54°38' E 019°06'1313.0
2014-Nov-18 20:33N 54°26' E 018°59'9 9.3
2014-Nov-18 19:33N 54°24' E 018°43'1 0.5
2014-Nov-18 18:31N 54°23' E 018°43'0 0.0
2014-Nov-18 17:31N 54°23' E 018°43'0 0.0
2014-Nov-18 16:31N 54°23' E 018°43'0 0.0
2014-Nov-18 15:31N 54°23' E 018°43'0 0.0
2014-Nov-18 14:33N 54°23' E 018°43'0 0.0
2014-Nov-18 13:33N 54°23' E 018°43'0 0.0
2014-Nov-18 12:33N 54°23' E 018°43'0 0.0
2014-Nov-18 11:33N 54°23' E 018°43'0 0.0
2014-Nov-18 10:32N 54°23' E 018°43'0 0.0
2014-Nov-18 09:32N 54°23' E 018°43'0 0.0
2014-Nov-18 08:29N 54°23' E 018°43'0 0.0
2014-Nov-18 07:32N 54°23' E 018°43'0 0.0
2014-Nov-18 06:32N 54°23' E 018°43'0 0.0
2014-Nov-18 05:32N 54°23' E 018°43'0 0.0
2014-Nov-18 04:32N 54°23' E 018°43'0 0.0
2014-Nov-18 03:32N 54°23' E 018°43'0 0.0
2014-Nov-18 02:32N 54°23' E 018°43'0 0.0
2014-Nov-18 01:32N 54°23' E 018°43'0 0.0
2014-Nov-18 00:32N 54°23' E 018°43'0 0.0
2014-Nov-17 23:32N 54°23' E 018°43'0 0.0
2014-Nov-17 22:32N 54°23' E 018°43'0 0.0
2014-Nov-17 21:32N 54°23' E 018°43'0 0.0
2014-Nov-17 20:32N 54°23' E 018°43'0 0.0
2014-Nov-17 19:32N 54°23' E 018°43'0 0.0
2014-Nov-17 18:32N 54°23' E 018°43'0 0.0
2014-Nov-17 17:32N 54°23' E 018°43'0 0.0
2014-Nov-17 16:32N 54°23' E 018°43'0 0.0
2014-Nov-17 15:32N 54°23' E 018°43'0 0.0
2014-Nov-17 14:32N 54°23' E 018°43'0 0.0
2014-Nov-17 13:32N 54°23' E 018°43'0 0.0
2014-Nov-17 12:32N 54°23' E 018°43'0 0.0
2014-Nov-17 11:32N 54°23' E 018°43'0 0.0
2014-Nov-17 10:32N 54°23' E 018°43'0 0.0
2014-Nov-17 09:32N 54°23' E 018°43'0 0.0
2014-Nov-17 08:32N 54°23' E 018°43'0 0.0
2014-Nov-17 07:29N 54°23' E 018°43'0 0.0
2014-Nov-17 06:32N 54°23' E 018°43'0 0.0
2014-Nov-17 05:29N 54°23' E 018°43'1 0.7
2014-Nov-17 04:33N 54°24' E 018°43'6 5.8
2014-Nov-17 03:33N 54°27' E 018°52'1 0.8
2014-Nov-17 02:33N 54°27' E 018°53'6 6.5
2014-Nov-17 01:33N 54°32' E 019°00'9 8.7
2014-Nov-17 00:34N 54°40' E 019°03'1212.0
2014-Nov-16 23:33N 54°52' E 019°02'1211.8
2014-Nov-16 22:33N 55°04' E 019°01'  
2014-Nov-13 17:20N 59°40' E 023°35'2613.8
2014-Nov-13 15:26N 59°46' E 024°26'1213.3
2014-Nov-13 14:34N 59°39' E 024°45'9 0.4
2014-Nov-12 16:04N 59°32' E 024°57'712.6
2014-Nov-12 15:33N 59°37' E 024°49'1212.5
2014-Nov-12 14:33N 59°43' E 024°27'2612.9
2014-Nov-12 12:33N 59°35' E 023°39'260 9.0
2014-Nov-11 07:29N 55°47' E 019°45'44 9.9
2014-Nov-11 03:04N 55°05' E 019°22'713.7
2014-Nov-11 02:33N 54°58' E 019°18'1414.1
2014-Nov-11 01:33N 54°45' E 019°11'1413.5
2014-Nov-11 00:33N 54°32' E 019°03'1211.9
2014-Nov-10 23:33N 54°25' E 018°47'3 2.7
2014-Nov-10 22:32N 54°23' E 018°43'0 0.0
2014-Nov-10 21:32N 54°23' E 018°43'0 0.0
2014-Nov-10 20:32N 54°23' E 018°43'0 0.0
2014-Nov-10 19:32N 54°23' E 018°43'0 0.0
2014-Nov-10 18:32N 54°23' E 018°43'0 0.0
2014-Nov-10 17:32N 54°23' E 018°43'0 0.0
2014-Nov-10 16:33N 54°23' E 018°43'0 0.0
2014-Nov-10 15:31N 54°23' E 018°43'0 0.0
2014-Nov-10 14:33N 54°23' E 018°43'0 0.0
2014-Nov-10 13:33N 54°23' E 018°43'0 0.0
2014-Nov-10 12:31N 54°23' E 018°43'  

Dump ship's entire track history